createdAt,value
2022-09-28T00:01:32.278Z,3.38
2022-09-28T00:03:59.911Z,5.15
2022-09-28T00:06:28.835Z,1.65
2022-09-28T00:08:56.569Z,3.58
2022-09-28T00:11:27.444Z,2.07
2022-09-28T00:13:56.686Z,3.25
2022-09-28T00:16:28.762Z,3.20
2022-09-28T00:18:56.523Z,2.50
2022-09-28T00:21:28.230Z,2.85
2022-09-28T00:24:15.364Z,4.63
2022-09-28T00:26:44.200Z,2.10
2022-09-28T00:29:32.189Z,3.85
2022-09-28T00:32:02.410Z,2.28
2022-09-28T00:34:34.702Z,3.53
2022-09-28T00:37:02.864Z,1.73
2022-09-28T00:39:33.030Z,3.15
2022-09-28T00:42:00.377Z,2.42
2022-09-28T00:44:27.687Z,4.60
2022-09-28T00:47:13.876Z,2.95
2022-09-28T00:49:52.265Z,1.30
2022-09-28T00:52:23.511Z,2.85
2022-09-28T00:54:51.685Z,3.10
2022-09-28T00:57:19.138Z,4.75
2022-09-28T00:59:46.510Z,4.15
2022-09-28T01:02:13.925Z,4.67
2022-09-28T01:04:41.407Z,3.97
2022-09-28T01:07:09.390Z,4.93
2022-09-28T01:09:40.787Z,4.32
2022-09-28T01:12:08.635Z,7.18
2022-09-28T01:14:36.082Z,8.90
2022-09-28T01:17:03.444Z,5.78
2022-09-28T01:19:35.539Z,10.38
2022-09-28T01:22:14.253Z,7.05
2022-09-28T01:24:49.943Z,6.65
2022-09-28T01:27:17.285Z,5.80
2022-09-28T01:29:53.456Z,6.03
2022-09-28T01:32:20.748Z,5.93
2022-09-28T01:34:53.503Z,5.38
2022-09-28T01:37:22.147Z,5.00
2022-09-28T01:39:50.785Z,4.83
2022-09-28T01:42:21.920Z,4.95
2022-09-28T01:44:50.631Z,5.85
2022-09-28T01:47:23.133Z,4.40
2022-09-28T01:49:56.731Z,5.93
2022-09-28T01:52:28.080Z,4.17
2022-09-28T01:54:55.314Z,4.38
2022-09-28T01:57:29.809Z,3.42
2022-09-28T02:00:02.135Z,2.63
2022-09-28T02:02:33.651Z,2.22
2022-09-28T02:05:05.753Z,4.07
2022-09-28T02:07:35.291Z,3.50
2022-09-28T02:10:16.066Z,1.30
2022-09-28T02:12:45.864Z,1.75
2022-09-28T02:15:21.806Z,2.92
2022-09-28T02:17:49.675Z,2.37
2022-09-28T02:20:17.371Z,2.67
2022-09-28T02:22:46.882Z,2.22
2022-09-28T02:25:24.190Z,2.17
2022-09-28T02:27:51.525Z,2.70
2022-09-28T02:30:18.883Z,1.80
2022-09-28T02:32:49.395Z,2.72
2022-09-28T02:35:18.377Z,1.00
2022-09-28T02:37:46.553Z,1.73
2022-09-28T02:40:18.151Z,1.40
2022-09-28T02:42:48.588Z,4.00
2022-09-28T02:45:34.750Z,1.98
2022-09-28T02:48:02.360Z,2.65
2022-09-28T02:50:33.249Z,1.00
2022-09-28T02:53:12.738Z,2.17
2022-09-28T02:56:00.287Z,1.97
2022-09-28T02:58:31.317Z,2.10
2022-09-28T03:01:17.544Z,1.50
2022-09-28T03:03:49.290Z,1.10
2022-09-28T03:06:22.974Z,1.73
2022-09-28T03:09:13.306Z,1.30
2022-09-28T03:11:46.572Z,5.68
2022-09-28T03:14:14.248Z,3.30
2022-09-28T03:16:49.283Z,1.70
2022-09-28T03:19:24.310Z,1.20
2022-09-28T03:21:52.404Z,1.23
2022-09-28T03:24:19.713Z,1.40
2022-09-28T03:26:47.048Z,1.77
2022-09-28T03:29:15.060Z,1.58
2022-09-28T03:31:44.983Z,1.20
2022-09-28T03:34:12.522Z,1.23
2022-09-28T03:36:39.832Z,1.02
2022-09-28T03:39:07.146Z,1.50
2022-09-28T03:41:34.453Z,0.90
2022-09-28T03:44:01.887Z,1.77
2022-09-28T03:46:30.487Z,1.17
2022-09-28T03:49:03.107Z,1.23
2022-09-28T03:51:30.435Z,0.82
2022-09-28T03:53:57.994Z,1.67
2022-09-28T03:56:25.335Z,1.52
2022-09-28T03:58:52.670Z,2.30
2022-09-28T04:01:20.345Z,1.20
2022-09-28T04:03:48.334Z,1.58
2022-09-28T04:06:15.796Z,1.42
2022-09-28T04:08:43.492Z,1.35
2022-09-28T04:11:11.479Z,2.20
2022-09-28T04:13:38.857Z,1.25
2022-09-28T04:16:10.500Z,1.40
2022-09-28T04:18:38.724Z,0.80
2022-09-28T04:21:27.401Z,1.48
2022-09-28T04:24:00.335Z,1.00
2022-09-28T04:26:28.465Z,2.25
2022-09-28T04:29:15.773Z,1.63
2022-09-28T04:31:55.446Z,1.52
2022-09-28T04:34:44.177Z,1.27
2022-09-28T04:37:12.083Z,1.07
2022-09-28T04:39:43.131Z,1.30
2022-09-28T04:42:14.057Z,1.38
2022-09-28T04:44:41.326Z,1.17
2022-09-28T04:47:10.128Z,1.48
2022-09-28T04:49:56.205Z,2.97
2022-09-28T04:52:31.384Z,1.63
2022-09-28T04:54:59.409Z,2.00
2022-09-28T04:57:26.968Z,3.13
2022-09-28T04:59:55.198Z,2.10
2022-09-28T05:02:22.691Z,2.90
2022-09-28T05:05:08.997Z,2.92
2022-09-28T05:08:08.451Z,2.17
2022-09-28T05:10:35.851Z,1.70
2022-09-28T05:13:03.628Z,1.95
2022-09-28T05:15:31.049Z,2.50
2022-09-28T05:17:58.568Z,1.58
2022-09-28T05:20:41.236Z,2.33
2022-09-28T05:23:11.012Z,5.60
2022-09-28T05:25:39.116Z,6.88
2022-09-28T05:28:15.397Z,1.80
2022-09-28T05:31:02.084Z,13.20
2022-09-28T05:33:49.408Z,11.25
2022-09-28T05:36:16.732Z,3.65
2022-09-28T05:38:44.166Z,7.05
2022-09-28T05:41:11.788Z,5.10
2022-09-28T05:43:39.706Z,1.92
2022-09-28T05:46:07.487Z,1.80
2022-09-28T05:48:37.900Z,2.15
2022-09-28T05:51:05.327Z,2.22
2022-09-28T05:53:32.617Z,1.90
2022-09-28T05:56:00.415Z,6.38
2022-09-28T05:58:28.471Z,2.17
2022-09-28T06:00:56.737Z,2.35
2022-09-28T06:03:24.596Z,2.28
2022-09-28T06:05:51.929Z,1.93
2022-09-28T06:08:19.298Z,1.70
2022-09-28T06:10:53.196Z,1.67
2022-09-28T06:13:20.769Z,1.42
2022-09-28T06:15:48.175Z,1.73
2022-09-28T06:18:15.877Z,1.60
2022-09-28T06:21:07.120Z,2.78
2022-09-28T06:23:40.324Z,2.08
2022-09-28T06:26:08.562Z,1.95
2022-09-28T06:28:35.815Z,2.33
2022-09-28T06:31:03.303Z,1.80
2022-09-28T06:33:31.543Z,1.83
2022-09-28T06:36:00.134Z,2.88
2022-09-28T06:38:27.580Z,1.60
2022-09-28T06:40:55.010Z,3.03
2022-09-28T06:43:22.627Z,1.80
2022-09-28T06:46:13.927Z,3.10
2022-09-28T06:48:50.275Z,2.38
2022-09-28T06:51:21.359Z,3.97
2022-09-28T06:53:57.482Z,2.42
2022-09-28T06:56:43.330Z,1.60
2022-09-28T06:59:11.666Z,1.80
2022-09-28T07:01:39.069Z,2.08
2022-09-28T07:04:10.832Z,2.80
2022-09-28T07:06:56.854Z,1.70
2022-09-28T07:09:35.065Z,1.37
2022-09-28T07:12:13.388Z,1.90
2022-09-28T07:14:57.488Z,2.80
2022-09-28T07:17:27.417Z,3.03
2022-09-28T07:20:01.045Z,2.65
2022-09-28T07:22:40.942Z,2.67
2022-09-28T07:25:12.393Z,2.00
2022-09-28T07:28:02.152Z,2.70
2022-09-28T07:30:48.450Z,2.03
2022-09-28T07:33:38.544Z,4.00
2022-09-28T07:36:18.561Z,2.60
2022-09-28T07:38:45.949Z,2.03
2022-09-28T07:41:14.216Z,2.22
2022-09-28T07:43:48.383Z,2.47
2022-09-28T07:46:16.974Z,3.55
2022-09-28T07:48:58.241Z,2.00
2022-09-28T07:51:44.313Z,1.38
2022-09-28T07:54:39.481Z,1.77
2022-09-28T07:57:39.928Z,2.10
2022-09-28T08:00:34.367Z,2.75
2022-09-28T08:03:03.094Z,1.80
2022-09-28T08:05:32.490Z,4.03
2022-09-28T08:07:59.990Z,4.30
2022-09-28T08:10:29.166Z,1.70
2022-09-28T08:13:07.556Z,2.40
2022-09-28T08:16:01.961Z,3.70
2022-09-28T08:18:58.304Z,2.33
2022-09-28T08:21:44.644Z,1.77
2022-09-28T08:24:13.959Z,2.25
2022-09-28T08:26:41.537Z,1.45
2022-09-28T08:29:09.000Z,2.47
2022-09-28T08:32:08.114Z,3.83
2022-09-28T08:34:38.886Z,1.58
2022-09-28T08:37:21.434Z,2.55
2022-09-28T08:40:07.382Z,2.15
2022-09-28T08:42:45.884Z,2.10
2022-09-28T08:45:35.918Z,2.05
2022-09-28T08:48:56.937Z,1.40
2022-09-28T08:51:53.837Z,1.17
2022-09-28T08:54:54.923Z,1.42
2022-09-28T08:57:34.548Z,1.60
2022-09-28T09:00:04.706Z,2.17
2022-09-28T09:02:39.721Z,1.42
2022-09-28T09:05:14.830Z,3.25
2022-09-28T09:08:08.393Z,1.75
2022-09-28T09:10:46.158Z,1.87
2022-09-28T09:13:38.847Z,3.72
2022-09-28T09:16:25.503Z,1.55
2022-09-28T09:19:30.657Z,0.85
2022-09-28T09:22:48.787Z,2.15
2022-09-28T09:25:19.747Z,1.60
2022-09-28T09:27:48.421Z,1.00
2022-09-28T09:30:20.009Z,1.23
2022-09-28T09:32:48.048Z,1.33
2022-09-28T09:35:19.637Z,1.60
2022-09-28T09:38:07.081Z,1.10
2022-09-28T09:40:53.064Z,5.20
2022-09-28T09:43:48.191Z,1.10
2022-09-28T09:46:49.894Z,1.20
2022-09-28T09:49:49.081Z,2.42
2022-09-28T09:52:24.887Z,0.83
2022-09-28T09:55:02.142Z,1.73
2022-09-28T09:57:42.021Z,0.95
2022-09-28T10:00:28.525Z,3.78
2022-09-28T10:03:13.791Z,1.83
2022-09-28T10:05:43.654Z,1.13
2022-09-28T10:08:18.935Z,3.17
2022-09-28T10:11:02.159Z,1.40
2022-09-28T10:13:32.976Z,3.65
2022-09-28T10:16:03.673Z,1.35
2022-09-28T10:18:37.136Z,1.77
2022-09-28T10:21:23.242Z,0.80
2022-09-28T10:24:26.574Z,0.60
2022-09-28T10:26:55.588Z,2.58
2022-09-28T10:29:25.377Z,2.65
2022-09-28T10:31:54.387Z,0.60
2022-09-28T10:34:35.601Z,1.80
2022-09-28T10:37:12.851Z,1.13
2022-09-28T10:39:58.223Z,0.40
2022-09-28T10:42:32.154Z,0.88
2022-09-28T10:45:05.348Z,0.60
2022-09-28T10:47:35.896Z,0.50
2022-09-28T10:50:17.517Z,1.10
2022-09-28T10:52:46.327Z,0.60
2022-09-28T10:55:36.964Z,0.43
2022-09-28T10:58:31.477Z,0.70
2022-09-28T11:01:04.412Z,1.42
2022-09-28T11:03:32.342Z,0.50
2022-09-28T11:06:07.108Z,0.88
2022-09-28T11:08:40.105Z,7.47
2022-09-28T11:11:13.619Z,0.67
2022-09-28T11:14:01.360Z,1.30
2022-09-28T11:16:33.856Z,0.90
2022-09-28T11:19:25.696Z,0.70
2022-09-28T11:21:54.470Z,0.90
2022-09-28T11:24:27.136Z,0.77
2022-09-28T11:27:00.373Z,1.38
2022-09-28T11:29:29.826Z,1.00
2022-09-28T11:32:18.626Z,1.27
2022-09-28T11:35:19.928Z,1.08
2022-09-28T11:38:07.241Z,2.13
2022-09-28T11:41:09.969Z,2.08
2022-09-28T11:43:47.889Z,1.65
2022-09-28T11:46:35.109Z,1.33
2022-09-28T11:49:16.221Z,0.95
2022-09-28T11:51:44.700Z,0.90
2022-09-28T11:54:28.829Z,0.50
2022-09-28T11:56:58.884Z,0.90
2022-09-28T11:59:39.603Z,0.55
2022-09-28T12:02:15.124Z,0.68
2022-09-28T12:04:55.603Z,2.37
2022-09-28T12:07:24.872Z,0.77
2022-09-28T12:09:58.459Z,0.68
2022-09-28T12:12:32.633Z,0.82
2022-09-28T12:15:03.848Z,1.17
2022-09-28T12:17:40.311Z,1.03
2022-09-28T12:20:16.566Z,1.30
2022-09-28T12:22:56.706Z,0.93
2022-09-28T12:25:24.076Z,0.60
2022-09-28T12:28:02.447Z,0.50
2022-09-28T12:30:33.485Z,0.80
2022-09-28T12:33:15.351Z,1.02
2022-09-28T12:36:00.972Z,1.92
2022-09-28T12:38:54.071Z,2.72
2022-09-28T12:41:40.320Z,0.65
2022-09-28T12:44:07.621Z,1.93
2022-09-28T12:46:55.253Z,0.80
2022-09-28T12:55:20.743Z,0.73
2022-09-28T12:57:59.506Z,4.23
2022-09-28T13:00:31.164Z,1.73
2022-09-28T13:03:06.036Z,2.25
2022-09-28T13:05:39.108Z,1.05
2022-09-28T13:08:21.912Z,0.80
2022-09-28T13:10:55.766Z,1.30
2022-09-28T13:13:23.187Z,0.88
2022-09-28T13:15:50.684Z,1.80
2022-09-28T13:18:31.739Z,1.77
2022-09-28T13:20:59.291Z,2.40
2022-09-28T13:23:28.855Z,3.50
2022-09-28T13:26:00.099Z,3.50
2022-09-28T13:28:28.329Z,0.93
2022-09-28T13:30:56.847Z,1.58
2022-09-28T13:33:30.418Z,0.85
2022-09-28T13:35:57.800Z,1.97
2022-09-28T13:38:25.541Z,1.10
2022-09-28T13:41:05.151Z,0.85
2022-09-28T13:43:35.096Z,1.38
2022-09-28T13:46:09.967Z,0.80
2022-09-28T13:48:44.769Z,0.93
2022-09-28T13:51:12.079Z,1.73
2022-09-28T13:53:39.585Z,1.95
2022-09-28T13:56:25.683Z,0.90
2022-09-28T13:59:04.046Z,0.70
2022-09-28T14:01:37.147Z,1.00
2022-09-28T14:04:21.962Z,1.38
2022-09-28T14:06:57.552Z,1.23
2022-09-28T14:09:25.015Z,2.00
2022-09-28T14:12:02.644Z,0.98
2022-09-28T14:14:50.341Z,0.93
2022-09-28T14:17:23.882Z,0.95
2022-09-28T14:19:56.216Z,1.33
2022-09-28T14:22:32.820Z,0.93
2022-09-28T14:25:07.302Z,1.40
2022-09-28T14:27:44.873Z,1.03
2022-09-28T14:30:12.157Z,0.70
2022-09-28T14:32:58.673Z,1.15
2022-09-28T14:35:33.631Z,1.65
2022-09-28T14:38:24.482Z,1.10
2022-09-28T14:41:10.045Z,0.90
2022-09-28T14:43:46.731Z,1.25
2022-09-28T14:46:17.247Z,1.30
2022-09-28T14:48:48.856Z,1.92
2022-09-28T14:51:21.983Z,1.90
2022-09-28T14:53:50.966Z,1.67
2022-09-28T14:56:18.965Z,1.00
2022-09-28T14:58:47.280Z,1.38
2022-09-28T15:01:20.207Z,1.48
2022-09-28T15:03:52.519Z,1.13
2022-09-28T15:06:22.920Z,0.70
2022-09-28T15:08:50.385Z,0.82
2022-09-28T15:11:20.671Z,1.17
2022-09-28T15:13:48.286Z,0.50
2022-09-28T15:16:17.409Z,1.95
2022-09-28T15:18:59.942Z,0.67
2022-09-28T15:21:49.790Z,3.20
2022-09-28T15:24:35.756Z,3.03
2022-09-28T15:27:04.875Z,0.98
2022-09-28T15:29:33.406Z,1.10
2022-09-28T15:32:00.837Z,0.60
2022-09-28T15:34:48.303Z,0.80
2022-09-28T15:37:16.651Z,1.40
2022-09-28T15:39:48.403Z,1.73
2022-09-28T15:42:16.993Z,2.63
2022-09-28T15:45:00.725Z,0.87
2022-09-28T15:47:29.387Z,3.05
2022-09-28T15:50:05.327Z,1.92
2022-09-28T15:52:41.189Z,2.75
2022-09-28T15:55:26.189Z,1.90
2022-09-28T15:58:12.567Z,1.50
2022-09-28T16:00:40.504Z,2.15
2022-09-28T16:03:07.883Z,1.20
2022-09-28T16:05:41.420Z,0.60
2022-09-28T16:08:21.271Z,1.25
2022-09-28T16:10:58.094Z,1.63
2022-09-28T16:13:25.631Z,1.15
2022-09-28T16:15:59.854Z,1.95
2022-09-28T16:18:28.066Z,1.00
2022-09-28T16:20:56.558Z,3.60
2022-09-28T16:23:31.008Z,1.50
2022-09-28T16:25:58.898Z,2.72
2022-09-28T16:28:30.428Z,1.65
2022-09-28T16:31:04.113Z,2.05
2022-09-28T16:33:38.767Z,1.08
2022-09-28T16:36:10.167Z,0.70
2022-09-28T16:38:38.881Z,1.38
2022-09-28T16:41:06.624Z,0.90
2022-09-28T16:43:36.575Z,1.15
2022-09-28T16:46:12.838Z,1.13
2022-09-28T16:48:48.566Z,1.83
2022-09-28T16:51:16.342Z,1.17
2022-09-28T16:54:02.798Z,0.77
2022-09-28T16:56:30.432Z,1.95
2022-09-28T16:58:57.847Z,3.22
2022-09-28T17:01:25.440Z,1.57
2022-09-28T17:03:52.830Z,0.75
2022-09-28T17:06:21.599Z,1.88
2022-09-28T17:08:48.913Z,1.83
2022-09-28T17:11:23.363Z,1.48
2022-09-28T17:13:51.896Z,1.20
2022-09-28T17:16:37.109Z,1.52
2022-09-28T17:19:21.208Z,1.40
2022-09-28T17:21:48.819Z,1.52
2022-09-28T17:24:16.211Z,2.72
2022-09-28T17:26:44.419Z,1.23
2022-09-28T17:29:14.556Z,1.30
2022-09-28T17:31:45.470Z,1.00
2022-09-28T17:34:16.504Z,4.47
2022-09-28T17:36:44.400Z,1.50
2022-09-28T17:39:16.024Z,0.93
2022-09-28T17:41:43.462Z,1.02
2022-09-28T17:44:11.242Z,1.98
2022-09-28T17:46:39.615Z,1.63
2022-09-28T17:49:08.093Z,4.10
2022-09-28T17:51:39.943Z,1.60
2022-09-28T17:54:08.293Z,1.77
2022-09-28T17:56:36.253Z,1.63
2022-09-28T17:59:04.965Z,1.55
2022-09-28T18:01:34.580Z,3.55
2022-09-28T18:04:06.682Z,2.23
2022-09-28T18:06:34.412Z,1.33
2022-09-28T18:09:03.143Z,4.95
2022-09-28T18:11:31.011Z,1.95
2022-09-28T18:13:58.371Z,2.25
2022-09-28T18:16:27.971Z,2.07
2022-09-28T18:18:55.653Z,3.47
2022-09-28T18:21:22.949Z,3.67
2022-09-28T18:23:50.276Z,4.18
2022-09-28T18:26:19.626Z,4.70
2022-09-28T18:28:47.380Z,3.40
2022-09-28T18:31:15.743Z,4.35
2022-09-28T18:33:52.332Z,5.60
2022-09-28T18:36:19.670Z,5.72
2022-09-28T18:38:47.080Z,4.60
2022-09-28T18:41:15.784Z,4.00
2022-09-28T18:43:50.750Z,4.95
2022-09-28T18:46:18.752Z,2.70
2022-09-28T18:48:47.729Z,3.30
2022-09-28T18:51:15.194Z,3.30
2022-09-28T18:53:42.573Z,3.30
2022-09-28T18:56:11.417Z,2.78
2022-09-28T18:58:39.504Z,3.42
2022-09-28T19:01:28.551Z,2.67
2022-09-28T19:03:56.012Z,4.28
2022-09-28T19:06:23.351Z,2.83
2022-09-28T19:08:55.683Z,4.80
2022-09-28T19:11:23.287Z,2.20
2022-09-28T19:13:50.816Z,1.98
2022-09-28T19:16:20.713Z,2.70
2022-09-28T19:18:48.488Z,11.63
2022-09-28T19:21:16.086Z,2.75
2022-09-28T19:23:48.995Z,2.50
2022-09-28T19:26:22.071Z,2.42
2022-09-28T19:28:49.490Z,4.50
2022-09-28T19:31:16.904Z,2.37
2022-09-28T19:33:46.481Z,2.55
2022-09-28T19:36:18.465Z,4.28
2022-09-28T19:38:46.205Z,5.18
2022-09-28T19:41:37.825Z,4.07
2022-09-28T19:44:09.839Z,3.90
2022-09-28T19:46:38.856Z,4.05
2022-09-28T19:49:25.364Z,3.70
2022-09-28T19:52:13.851Z,2.92
2022-09-28T19:54:44.528Z,3.38
2022-09-28T19:57:12.709Z,5.43
2022-09-28T19:59:40.036Z,4.18
2022-09-28T20:02:08.415Z,5.80
2022-09-28T20:04:35.925Z,5.03
2022-09-28T20:07:03.749Z,3.40
2022-09-28T20:09:31.149Z,4.97
2022-09-28T20:11:58.459Z,4.00
2022-09-28T20:14:27.904Z,4.80
2022-09-28T20:16:58.126Z,4.78
2022-09-28T20:19:26.264Z,3.80
2022-09-28T20:21:53.926Z,7.07
2022-09-28T20:24:21.283Z,3.63
2022-09-28T20:26:49.578Z,4.70
2022-09-28T20:29:17.583Z,4.80
2022-09-28T20:31:45.666Z,7.88
2022-09-28T20:34:13.286Z,5.17
2022-09-28T20:36:43.620Z,4.93
2022-09-28T20:39:11.997Z,4.00
2022-09-28T20:41:39.529Z,3.70
2022-09-28T20:44:07.275Z,5.18
2022-09-28T20:46:35.327Z,7.57
2022-09-28T20:49:02.833Z,4.10
2022-09-28T20:51:30.332Z,3.60
2022-09-28T20:53:58.890Z,4.65
2022-09-28T20:56:27.345Z,5.05
2022-09-28T20:58:55.159Z,3.47
2022-09-28T21:01:26.635Z,4.95
2022-09-28T21:03:55.133Z,3.92
2022-09-28T21:06:24.236Z,3.85
2022-09-28T21:08:51.796Z,4.03
2022-09-28T21:11:20.718Z,3.60
2022-09-28T21:13:48.312Z,4.35
2022-09-28T21:16:18.040Z,3.97
2022-09-28T21:18:45.797Z,3.20
2022-09-28T21:21:17.475Z,4.50
2022-09-28T21:23:45.436Z,4.83
2022-09-28T21:26:12.705Z,3.72
2022-09-28T21:28:40.341Z,4.07
2022-09-28T21:31:08.712Z,3.70
2022-09-28T21:33:36.140Z,4.32
2022-09-28T21:36:04.322Z,4.77
2022-09-28T21:38:31.897Z,3.92
2022-09-28T21:40:59.846Z,4.35
2022-09-28T21:43:28.218Z,3.90
2022-09-28T21:45:56.278Z,3.47
2022-09-28T21:48:24.681Z,3.10
2022-09-28T21:51:02.412Z,5.05
2022-09-28T21:53:31.385Z,5.00
2022-09-28T21:56:00.133Z,3.97
2022-09-28T21:58:28.674Z,3.95
2022-09-28T22:01:07.906Z,3.20
2022-09-28T22:03:36.241Z,3.53
2022-09-28T22:06:07.372Z,6.18
2022-09-28T22:08:35.365Z,4.00
2022-09-28T22:11:10.432Z,4.40
2022-09-28T22:13:40.601Z,5.00
2022-09-28T22:16:08.552Z,6.18
2022-09-28T22:18:36.060Z,4.18
2022-09-28T22:21:06.640Z,3.97
2022-09-28T22:23:34.750Z,4.25
2022-09-28T22:26:03.808Z,3.53
2022-09-28T22:28:31.086Z,3.67
2022-09-28T22:30:58.510Z,4.20
2022-09-28T22:33:26.410Z,3.47
2022-09-28T22:35:53.839Z,3.75
2022-09-28T22:38:22.281Z,3.63
2022-09-28T22:40:50.462Z,3.80
2022-09-28T22:43:18.750Z,5.40
2022-09-28T22:45:46.229Z,5.15
2022-09-28T22:48:13.957Z,4.72
2022-09-28T22:50:48.440Z,4.70
2022-09-28T22:53:15.974Z,5.00
2022-09-28T22:55:43.300Z,4.63
2022-09-28T22:58:10.644Z,5.35
2022-09-28T23:00:38.063Z,7.32
2022-09-28T23:03:05.501Z,3.70
2022-09-28T23:05:32.858Z,4.03
2022-09-28T23:08:00.187Z,6.60
2022-09-28T23:10:27.482Z,4.78
2022-09-28T23:12:55.021Z,4.50
2022-09-28T23:15:22.936Z,4.93
2022-09-28T23:17:53.643Z,4.72
2022-09-28T23:20:21.369Z,4.65
2022-09-28T23:22:49.039Z,3.83
2022-09-28T23:25:17.182Z,4.55
2022-09-28T23:27:48.407Z,4.50
2022-09-28T23:30:16.880Z,4.88
2022-09-28T23:32:44.412Z,4.47
2022-09-28T23:35:12.427Z,4.70
2022-09-28T23:37:39.797Z,4.45
2022-09-28T23:40:07.725Z,4.33
2022-09-28T23:42:35.606Z,5.88
2022-09-28T23:45:02.955Z,6.60
2022-09-28T23:47:30.261Z,4.00
2022-09-28T23:49:57.616Z,4.45
2022-09-28T23:52:25.145Z,4.40
2022-09-28T23:54:52.403Z,4.20
2022-09-28T23:57:19.746Z,5.63
2022-09-28T23:59:47.055Z,4.25
